Time,TemperatureF,DewpointF,PressureIn,WindDirection,WindDirectionDegrees,WindSpeedMPH,WindSpeedGustMPH,Humidity,HourlyPrecipIn,Conditions,Clouds,dailyrainin,SoftwareType,DateUTC
2013-05-05 00:03:00,59.4,31.7,29.35,SSE,152,4.9,5.4,35,0.00,,---,0.00,VWS V14.00,2013-05-05 07:03:00,
2013-05-05 00:09:00,59.2,32.3,29.35,SE,124,2.7,3.6,36,0.00,,---,0.00,VWS V14.00,2013-05-05 07:09:00,
2013-05-05 00:14:00,58.8,32.6,29.35,ESE,122,3.1,3.1,37,0.00,,---,0.00,VWS V14.00,2013-05-05 07:14:00,
2013-05-05 00:19:00,58.8,32.6,29.35,South,171,4.0,4.0,37,0.00,,---,0.00,VWS V14.00,2013-05-05 07:19:00,
2013-05-05 00:24:00,58.6,32.5,29.35,East,98,3.6,4.0,37,0.00,,---,0.00,VWS V14.00,2013-05-05 07:24:00,
2013-05-05 00:30:00,58.6,32.5,29.35,ESE,117,4.0,4.0,37,0.00,,---,0.00,VWS V14.00,2013-05-05 07:30:00,
2013-05-05 00:35:00,58.5,32.3,29.35,ESE,104,2.7,2.7,37,0.00,,---,0.00,VWS V14.00,2013-05-05 07:35:00,
2013-05-05 00:41:00,58.5,32.3,29.35,SE,139,3.6,3.6,37,0.00,,---,0.00,VWS V14.00,2013-05-05 07:41:00,
2013-05-05 00:46:00,58.5,32.3,29.35,SSE,160,3.1,3.1,37,0.00,,---,0.00,VWS V14.00,2013-05-05 07:46:00,
2013-05-05 00:51:00,58.3,32.2,29.35,ESE,121,0.0,0.0,37,0.00,,---,0.00,VWS V14.00,2013-05-05 07:51:00,
2013-05-05 00:56:00,58.5,32.3,29.35,SSE,147,4.0,4.0,37,0.00,,---,0.00,VWS V14.00,2013-05-05 07:56:00,
2013-05-05 01:02:00,58.3,32.2,29.35,SSE,158,3.6,3.6,37,0.00,,---,0.00,VWS V14.00,2013-05-05 08:02:00,
2013-05-05 01:07:00,58.3,32.2,29.35,SE,130,5.4,5.4,37,0.00,,---,0.00,VWS V14.00,2013-05-05 08:07:00,
2013-05-05 01:12:00,58.1,32.0,29.35,SE,146,4.0,4.0,37,0.00,,---,0.00,VWS V14.00,2013-05-05 08:12:00,
2013-05-05 01:18:00,58.1,32.0,29.35,SSE,160,5.4,5.4,37,0.00,,---,0.00,VWS V14.00,2013-05-05 08:18:00,
2013-05-05 01:24:00,58.1,32.7,29.35,South,191,5.4,5.4,38,0.00,,---,0.00,VWS V14.00,2013-05-05 08:24:00,
2013-05-05 01:29:00,58.1,32.0,29.35,SSE,149,4.0,4.0,37,0.00,,---,0.00,VWS V14.00,2013-05-05 08:29:00,
2013-05-05 01:34:00,58.1,32.0,29.35,South,170,2.7,4.0,37,0.00,,---,0.00,VWS V14.00,2013-05-05 08:34:00,
2013-05-05 01:39:00,57.9,31.8,29.35,SE,130,0.0,0.0,37,0.00,,---,0.00,VWS V14.00,2013-05-05 08:39:00,
2013-05-05 01:45:00,57.7,32.3,29.35,SSE,149,3.1,5.4,38,0.00,,---,0.00,VWS V14.00,2013-05-05 08:45:00,
2013-05-05 01:50:00,57.7,32.3,29.35,SSE,165,4.9,4.9,38,0.00,,---,0.00,VWS V14.00,2013-05-05 08:50:00,
2013-05-05 01:56:00,57.7,32.3,29.35,SSW,196,4.5,5.4,38,0.00,,---,0.00,VWS V14.00,2013-05-05 08:56:00,
2013-05-05 02:01:00,57.7,32.3,29.35,South,185,5.4,5.4,38,0.00,,---,0.00,VWS V14.00,2013-05-05 09:01:00,
2013-05-05 02:06:00,57.7,32.3,29.35,ESE,104,5.4,5.4,38,0.00,,---,0.00,VWS V14.00,2013-05-05 09:06:00,
2013-05-05 02:12:00,57.6,32.2,29.35,SSE,156,3.1,3.1,38,0.00,,---,0.00,VWS V14.00,2013-05-05 09:12:00,
2013-05-05 02:17:00,57.6,32.2,29.35,SSE,163,5.4,5.4,38,0.00,,---,0.00,VWS V14.00,2013-05-05 09:17:00,
2013-05-05 02:23:00,57.6,32.2,29.35,SE,126,4.0,4.0,38,0.00,,---,0.00,VWS V14.00,2013-05-05 09:23:00,
2013-05-05 02:28:00,57.6,32.2,29.35,South,183,4.0,4.0,38,0.00,,---,0.00,VWS V14.00,2013-05-05 09:28:00,
2013-05-05 02:33:00,57.6,32.2,29.35,South,173,4.0,4.9,38,0.00,,---,0.00,VWS V14.00,2013-05-05 09:33:00,
2013-05-05 02:38:00,57.4,32.7,29.35,South,182,5.8,8.1,39,0.00,,---,0.00,VWS V14.00,2013-05-05 09:38:00,
2013-05-05 02:43:00,57.4,32.7,29.35,SE,130,4.0,4.0,39,0.00,,---,0.00,VWS V14.00,2013-05-05 09:43:00,
2013-05-05 02:48:00,57.4,32.7,29.35,SSW,200,3.6,3.6,39,0.00,,---,0.00,VWS V14.00,2013-05-05 09:48:00,
2013-05-05 02:54:00,57.4,32.7,29.35,South,172,3.6,3.6,39,0.00,,---,0.00,VWS V14.00,2013-05-05 09:54:00,
2013-05-05 02:59:00,57.2,32.5,29.35,South,177,4.0,4.0,39,0.00,,---,0.00,VWS V14.00,2013-05-05 09:59:00,
2013-05-05 03:04:00,57.2,32.5,29.35,SSW,192,4.0,6.3,39,0.00,,---,0.00,VWS V14.00,2013-05-05 10:04:00,
2013-05-05 03:09:00,57.2,32.5,29.35,SSE,155,5.8,5.8,39,0.00,,---,0.00,VWS V14.00,2013-05-05 10:09:00,
2013-05-05 03:14:00,57.2,32.5,29.35,SSE,152,3.6,3.6,39,0.00,,---,0.00,VWS V14.00,2013-05-05 10:14:00,
2013-05-05 03:19:00,57.2,32.5,29.35,SSE,158,2.7,2.7,39,0.00,,---,0.00,VWS V14.00,2013-05-05 10:19:00,
2013-05-05 03:25:00,57.2,32.5,29.35,SE,130,6.3,6.3,39,0.00,,---,0.00,VWS V14.00,2013-05-05 10:25:00,
2013-05-05 03:31:00,57.2,32.5,29.35,SSE,159,3.1,3.1,39,0.00,,---,0.00,VWS V14.00,2013-05-05 10:31:00,
2013-05-05 03:37:00,57.2,32.5,29.35,South,174,5.4,8.1,39,0.00,,---,0.00,VWS V14.00,2013-05-05 10:37:00,
2013-05-05 03:42:00,57.2,33.1,29.35,SSE,154,5.8,5.8,40,0.00,,---,0.00,VWS V14.00,2013-05-05 10:42:00,
2013-05-05 03:48:00,57.2,32.5,29.35,South,171,4.0,4.0,39,0.00,,---,0.00,VWS V14.00,2013-05-05 10:48:00,
2013-05-05 03:53:00,57.0,33.0,29.35,South,184,5.4,5.4,40,0.00,,---,0.00,VWS V14.00,2013-05-05 10:53:00,
2013-05-05 03:58:00,57.0,33.0,29.35,South,172,3.6,8.3,40,0.00,,---,0.00,VWS V14.00,2013-05-05 10:58:00,
2013-05-05 04:03:00,56.8,32.8,29.38,SE,143,5.8,5.8,40,0.00,,---,0.00,VWS V14.00,2013-05-05 11:03:00,
2013-05-05 04:09:00,56.8,32.8,29.38,SSE,159,5.8,5.8,40,0.00,,---,0.00,VWS V14.00,2013-05-05 11:09:00,
2013-05-05 04:15:00,56.8,32.8,29.38,SE,143,10.5,10.5,40,0.00,,---,0.00,VWS V14.00,2013-05-05 11:15:00,
2013-05-05 04:20:00,56.7,33.2,29.38,South,178,5.4,5.4,41,0.00,,---,0.00,VWS V14.00,2013-05-05 11:20:00,
2013-05-05 04:25:00,56.7,33.2,29.38,SE,136,4.0,4.0,41,0.00,,---,0.00,VWS V14.00,2013-05-05 11:25:00,
2013-05-05 04:31:00,56.7,33.2,29.38,South,171,4.9,7.6,41,0.00,,---,0.00,VWS V14.00,2013-05-05 11:31:00,
2013-05-05 04:36:00,56.5,33.1,29.38,SSE,155,8.7,8.7,41,0.00,,---,0.00,VWS V14.00,2013-05-05 11:36:00,
2013-05-05 04:42:00,56.5,33.1,29.38,SSE,151,5.8,5.8,41,0.00,,---,0.00,VWS V14.00,2013-05-05 11:42:00,
2013-05-05 04:47:00,56.5,33.1,29.38,SSE,156,7.6,7.6,41,0.00,,---,0.00,VWS V14.00,2013-05-05 11:47:00,
2013-05-05 04:52:00,56.3,32.9,29.38,SSW,194,8.7,8.7,41,0.00,,---,0.00,VWS V14.00,2013-05-05 11:52:00,
2013-05-05 04:58:00,56.3,32.9,29.38,SE,129,3.6,3.6,41,0.00,,---,0.00,VWS V14.00,2013-05-05 11:58:00,
2013-05-05 05:04:00,56.1,32.8,29.38,SE,138,5.4,6.7,41,0.00,,---,0.00,VWS V14.00,2013-05-05 12:04:00,
2013-05-05 05:09:00,56.1,32.8,29.38,ESE,120,6.3,6.3,41,0.00,,---,0.00,VWS V14.00,2013-05-05 12:09:00,
2013-05-05 05:15:00,55.9,33.2,29.38,ENE,74,4.0,4.9,42,0.00,,---,0.00,VWS V14.00,2013-05-05 12:15:00,
2013-05-05 05:21:00,55.4,33.9,29.41,ENE,69,4.9,4.9,44,0.00,,---,0.00,VWS V14.00,2013-05-05 12:21:00,
2013-05-05 05:26:00,54.5,33.6,29.41,SE,136,4.5,4.5,45,0.00,,---,0.00,VWS V14.00,2013-05-05 12:26:00,
2013-05-05 05:31:00,54.1,33.8,29.41,SE,138,3.6,3.6,46,0.00,,---,0.00,VWS V14.00,2013-05-05 12:31:00,
2013-05-05 05:37:00,53.8,33.5,29.41,SSE,158,5.4,5.4,46,0.00,,---,0.00,VWS V14.00,2013-05-05 12:37:00,
2013-05-05 05:43:00,53.8,33.5,29.41,SE,135,3.6,3.6,46,0.00,,---,0.00,VWS V14.00,2013-05-05 12:43:00,
2013-05-05 05:48:00,53.6,33.9,29.41,SSE,159,2.2,6.3,47,0.00,,---,0.00,VWS V14.00,2013-05-05 12:48:00,
2013-05-05 05:54:00,53.4,33.7,29.41,SE,130,5.4,6.3,47,0.00,,---,0.00,VWS V14.00,2013-05-05 12:54:00,
2013-05-05 06:00:00,53.4,34.2,29.41,SE,141,5.4,5.4,48,0.00,,---,0.00,VWS V14.00,2013-05-05 13:00:00,
2013-05-05 06:05:00,53.4,33.7,29.41,South,172,3.1,3.1,47,0.00,,---,0.00,VWS V14.00,2013-05-05 13:05:00,
2013-05-05 06:10:00,53.2,33.5,29.41,ESE,119,3.6,4.0,47,0.00,,---,0.00,VWS V14.00,2013-05-05 13:10:00,
2013-05-05 06:15:00,53.1,33.4,29.41,South,171,4.9,4.9,47,0.00,,---,0.00,VWS V14.00,2013-05-05 13:15:00,
2013-05-05 06:21:00,53.1,33.4,29.41,SE,136,3.1,5.4,47,0.00,,---,0.00,VWS V14.00,2013-05-05 13:21:00,
2013-05-05 06:26:00,53.1,33.4,29.41,ESE,115,5.4,5.4,47,0.00,,---,0.00,VWS V14.00,2013-05-05 13:26:00,
2013-05-05 06:31:00,53.1,33.4,29.41,SSE,151,3.1,5.8,47,0.00,,---,0.00,VWS V14.00,2013-05-05 13:31:00,
2013-05-05 06:36:00,53.2,33.5,29.41,SE,139,2.7,2.7,47,0.00,,---,0.00,VWS V14.00,2013-05-05 13:36:00,
2013-05-05 06:42:00,53.6,33.9,29.41,SSW,194,0.0,0.0,47,0.00,,---,0.00,VWS V14.00,2013-05-05 13:42:00,
2013-05-05 06:47:00,54.0,34.2,29.41,SSE,154,4.9,4.9,47,0.00,,---,0.00,VWS V14.00,2013-05-05 13:47:00,
2013-05-05 06:52:00,54.3,34.5,29.41,SW,216,4.0,4.0,47,0.00,,---,0.00,VWS V14.00,2013-05-05 13:52:00,
2013-05-05 06:57:00,54.7,34.9,29.44,SE,126,4.0,4.0,47,0.00,,---,0.00,VWS V14.00,2013-05-05 13:57:00,
2013-05-05 07:03:00,54.9,35.0,29.44,SSE,152,3.1,4.9,47,0.00,,---,0.00,VWS V14.00,2013-05-05 14:03:00,
2013-05-05 07:08:00,55.4,35.5,29.44,SSE,147,5.4,5.4,47,0.00,,---,0.00,VWS V14.00,2013-05-05 14:08:00,
2013-05-05 07:13:00,55.8,35.3,29.44,SSW,202,3.1,4.9,46,0.00,,---,0.00,VWS V14.00,2013-05-05 14:13:00,
2013-05-05 07:19:00,56.1,35.6,29.44,SW,229,5.8,5.8,46,0.00,,---,0.00,VWS V14.00,2013-05-05 14:19:00,
2013-05-05 07:25:00,56.7,36.1,29.44,WSW,248,4.0,4.0,46,0.00,,---,0.00,VWS V14.00,2013-05-05 14:25:00,
2013-05-05 07:31:00,57.6,34.7,29.44,SSW,211,5.4,5.4,42,0.00,,---,0.00,VWS V14.00,2013-05-05 14:31:00,
2013-05-05 07:37:00,58.3,34.7,29.44,SSW,213,5.8,5.8,41,0.00,,---,0.00,VWS V14.00,2013-05-05 14:37:00,
2013-05-05 07:43:00,58.8,33.9,29.44,WSW,254,3.1,5.4,39,0.00,,---,0.00,VWS V14.00,2013-05-05 14:43:00,
2013-05-05 07:49:00,59.2,33.6,29.44,South,185,4.0,5.4,38,0.00,,---,0.00,VWS V14.00,2013-05-05 14:49:00,
2013-05-05 07:55:00,59.9,32.9,29.44,West,273,7.2,7.2,36,0.00,,---,0.00,VWS V14.00,2013-05-05 14:55:00,
2013-05-05 08:00:00,60.3,33.2,29.44,SW,223,6.3,6.3,36,0.00,,---,0.00,VWS V14.00,2013-05-05 15:00:00,
2013-05-05 08:06:00,60.3,33.2,29.47,South,170,3.6,7.2,36,0.00,,---,0.00,VWS V14.00,2013-05-05 15:06:00,
2013-05-05 08:11:00,60.4,32.7,29.47,South,185,6.3,6.3,35,0.00,,---,0.00,VWS V14.00,2013-05-05 15:11:00,
2013-05-05 08:16:00,60.6,32.8,29.47,South,187,5.8,6.3,35,0.00,,---,0.00,VWS V14.00,2013-05-05 15:16:00,
2013-05-05 08:22:00,60.6,32.8,29.47,WSW,248,11.0,11.0,35,0.00,,---,0.00,VWS V14.00,2013-05-05 15:22:00,
2013-05-05 08:27:00,60.6,32.8,29.47,West,263,5.4,5.4,35,0.00,,---,0.00,VWS V14.00,2013-05-05 15:27:00,
2013-05-05 08:32:00,60.6,32.8,29.47,WSW,239,0.0,5.4,35,0.00,,---,0.00,VWS V14.00,2013-05-05 15:32:00,
2013-05-05 08:37:00,61.5,32.9,29.47,SSE,157,2.7,8.7,34,0.00,,---,0.00,VWS V14.00,2013-05-05 15:37:00,
2013-05-05 08:43:00,62.1,33.4,29.47,WSW,244,5.8,5.8,34,0.00,,---,0.00,VWS V14.00,2013-05-05 15:43:00,
2013-05-05 08:49:00,62.2,33.5,29.47,South,180,3.6,5.4,34,0.00,,---,0.00,VWS V14.00,2013-05-05 15:49:00,
2013-05-05 08:55:00,62.2,33.5,29.47,WSW,244,4.0,4.0,34,0.00,,---,0.00,VWS V14.00,2013-05-05 15:55:00,
2013-05-05 09:01:00,61.9,33.2,29.47,SSW,205,6.3,6.3,34,0.00,,---,0.00,VWS V14.00,2013-05-05 16:01:00,
2013-05-05 09:06:00,61.5,32.9,29.47,South,182,4.0,5.4,34,0.00,,---,0.00,VWS V14.00,2013-05-05 16:06:00,
2013-05-05 09:11:00,62.1,33.4,29.47,SW,226,2.7,2.7,34,0.00,,---,0.00,VWS V14.00,2013-05-05 16:11:00,
2013-05-05 09:16:00,63.1,32.0,29.47,WSW,240,8.3,8.3,31,0.00,,---,0.00,VWS V14.00,2013-05-05 16:16:00,
2013-05-05 09:22:00,63.1,32.0,29.47,WSW,247,5.8,5.8,31,0.00,,---,0.00,VWS V14.00,2013-05-05 16:22:00,
2013-05-05 09:27:00,63.1,32.8,29.47,SW,236,7.6,7.6,32,0.00,,---,0.00,VWS V14.00,2013-05-05 16:27:00,
2013-05-05 09:33:00,63.7,32.5,29.47,SSW,212,4.5,4.5,31,0.00,,---,0.00,VWS V14.00,2013-05-05 16:33:00,
2013-05-05 09:38:00,64.4,32.3,29.47,South,169,6.3,6.3,30,0.00,,---,0.00,VWS V14.00,2013-05-05 16:38:00,
2013-05-05 09:43:00,64.0,32.0,29.47,WSW,257,4.0,5.4,30,0.00,,---,0.00,VWS V14.00,2013-05-05 16:43:00,
2013-05-05 09:48:00,63.5,32.3,29.50,SE,136,7.6,7.6,31,0.00,,---,0.00,VWS V14.00,2013-05-05 16:48:00,
2013-05-05 09:54:00,64.4,31.5,29.50,WSW,256,3.6,3.6,29,0.00,,---,0.00,VWS V14.00,2013-05-05 16:54:00,
2013-05-05 09:59:00,64.4,31.5,29.50,SSW,202,3.6,3.6,29,0.00,,---,0.00,VWS V14.00,2013-05-05 16:59:00,
2013-05-05 10:04:00,65.3,33.1,29.50,West,262,4.9,4.9,30,0.00,,---,0.00,VWS V14.00,2013-05-05 17:04:00,
2013-05-05 10:10:00,65.7,32.6,29.50,SSW,201,5.8,5.8,29,0.00,,---,0.00,VWS V14.00,2013-05-05 17:10:00,
2013-05-05 10:16:00,65.7,31.7,29.50,SSW,210,4.0,5.8,28,0.00,,---,0.00,VWS V14.00,2013-05-05 17:16:00,
2013-05-05 10:21:00,65.7,31.7,29.50,South,175,4.9,4.9,28,0.00,,---,0.00,VWS V14.00,2013-05-05 17:21:00,
2013-05-05 10:27:00,65.8,31.0,29.50,SW,226,4.0,4.0,27,0.00,,---,0.00,VWS V14.00,2013-05-05 17:27:00,
2013-05-05 10:33:00,66.4,31.4,29.50,WSW,249,6.3,6.3,27,0.00,,---,0.00,VWS V14.00,2013-05-05 17:33:00,
2013-05-05 10:38:00,66.6,31.6,29.50,NW,317,3.1,3.6,27,0.00,,---,0.00,VWS V14.00,2013-05-05 17:38:00,
2013-05-05 10:43:00,66.4,31.4,29.50,South,184,2.7,2.7,27,0.00,,---,0.00,VWS V14.00,2013-05-05 17:43:00,
2013-05-05 10:48:00,66.0,31.1,29.50,West,264,8.1,8.1,27,0.00,,---,0.00,VWS V14.00,2013-05-05 17:48:00,
2013-05-05 10:54:00,65.7,30.8,29.50,SE,139,2.7,3.6,27,0.00,,---,0.00,VWS V14.00,2013-05-05 17:54:00,
2013-05-05 10:59:00,65.8,31.9,29.50,WSW,240,7.6,7.6,28,0.00,,---,0.00,VWS V14.00,2013-05-05 17:59:00,
2013-05-05 11:04:00,67.1,32.0,29.50,SSE,167,4.0,4.0,27,0.00,,---,0.00,VWS V14.00,2013-05-05 18:04:00,
2013-05-05 11:09:00,67.5,31.4,29.50,SW,216,4.0,4.0,26,0.00,,---,0.00,VWS V14.00,2013-05-05 18:09:00,
2013-05-05 11:14:00,67.3,31.2,29.50,SW,235,2.7,4.9,26,0.00,,---,0.00,VWS V14.00,2013-05-05 18:14:00,
2013-05-05 11:19:00,68.0,30.9,29.50,South,170,6.3,8.1,25,0.00,,---,0.00,VWS V14.00,2013-05-05 18:19:00,
2013-05-05 11:25:00,68.2,32.0,29.50,SSW,213,2.7,4.0,26,0.00,,---,0.00,VWS V14.00,2013-05-05 18:25:00,
2013-05-05 11:31:00,67.8,30.7,29.50,SSW,192,2.7,4.0,25,0.00,,---,0.00,VWS V14.00,2013-05-05 18:31:00,
2013-05-05 11:37:00,67.3,30.3,29.50,WSW,241,3.1,3.1,25,0.00,,---,0.00,VWS V14.00,2013-05-05 18:37:00,
2013-05-05 11:43:00,67.1,30.1,29.50,SSW,206,2.7,4.0,25,0.00,,---,0.00,VWS V14.00,2013-05-05 18:43:00,
2013-05-05 11:48:00,66.9,30.0,29.50,SSW,211,4.9,4.9,25,0.00,,---,0.00,VWS V14.00,2013-05-05 18:48:00,
2013-05-05 11:53:00,66.9,30.0,29.50,South,185,4.9,4.9,25,0.00,,---,0.00,VWS V14.00,2013-05-05 18:53:00,
2013-05-05 11:58:00,67.8,30.7,29.50,South,185,5.8,5.8,25,0.00,,---,0.00,VWS V14.00,2013-05-05 18:58:00,
2013-05-05 12:04:00,68.9,31.7,29.50,SSE,161,6.3,6.3,25,0.00,,---,0.00,VWS V14.00,2013-05-05 19:04:00,
2013-05-05 12:09:00,69.6,31.3,29.50,SSW,212,2.7,2.7,24,0.00,,---,0.00,VWS V14.00,2013-05-05 19:09:00,
2013-05-05 12:14:00,70.0,31.6,29.50,WSW,238,3.1,3.1,24,0.00,,---,0.00,VWS V14.00,2013-05-05 19:14:00,
2013-05-05 12:19:00,70.7,32.2,29.50,South,180,0.0,0.0,24,0.00,,---,0.00,VWS V14.00,2013-05-05 19:19:00,
2013-05-05 12:25:00,70.9,32.3,29.50,South,187,5.8,8.1,24,0.00,,---,0.00,VWS V14.00,2013-05-05 19:25:00,
2013-05-05 12:30:00,71.1,31.4,29.50,South,169,7.6,7.6,23,0.00,,---,0.00,VWS V14.00,2013-05-05 19:30:00,
2013-05-05 12:35:00,70.5,31.0,29.50,South,185,2.7,2.7,23,0.00,,---,0.00,VWS V14.00,2013-05-05 19:35:00,
2013-05-05 12:41:00,71.1,31.4,29.50,WNW,289,3.1,3.1,23,0.00,,---,0.00,VWS V14.00,2013-05-05 19:41:00,
2013-05-05 12:46:00,71.4,31.7,29.50,WSW,246,4.0,4.0,23,0.00,,---,0.00,VWS V14.00,2013-05-05 19:46:00,
2013-05-05 12:51:00,71.4,31.7,29.50,NNW,346,4.9,4.9,23,0.00,,---,0.00,VWS V14.00,2013-05-05 19:51:00,
2013-05-05 12:56:00,71.6,30.8,29.50,NE,36,2.7,2.7,22,0.00,,---,0.00,VWS V14.00,2013-05-05 19:56:00,
2013-05-05 13:02:00,72.3,31.4,29.50,SW,223,4.0,6.3,22,0.00,,---,0.00,VWS V14.00,2013-05-05 20:02:00,
2013-05-05 13:08:00,72.9,31.8,29.50,SW,231,4.9,4.9,22,0.00,,---,0.00,VWS V14.00,2013-05-05 20:08:00,
2013-05-05 13:14:00,72.7,31.7,29.50,SSE,150,3.1,5.8,22,0.00,,---,0.00,VWS V14.00,2013-05-05 20:14:00,
2013-05-05 13:19:00,72.9,31.8,29.50,WSW,255,3.1,3.1,22,0.00,,---,0.00,VWS V14.00,2013-05-05 20:19:00,
2013-05-05 13:25:00,73.2,32.1,29.50,North,353,0.0,5.8,22,0.00,,---,0.00,VWS V14.00,2013-05-05 20:25:00,
2013-05-05 13:31:00,73.0,32.0,29.50,NNW,346,4.0,4.0,22,0.00,,---,0.00,VWS V14.00,2013-05-05 20:31:00,
2013-05-05 13:36:00,72.5,31.5,29.50,SW,224,0.0,0.0,22,0.00,,---,0.00,VWS V14.00,2013-05-05 20:36:00,
2013-05-05 13:42:00,72.3,31.4,29.50,WSW,240,3.1,5.4,22,0.00,,---,0.00,VWS V14.00,2013-05-05 20:42:00,
2013-05-05 13:47:00,71.4,30.6,29.50,SW,215,3.6,3.6,22,0.00,,---,0.00,VWS V14.00,2013-05-05 20:47:00,
2013-05-05 13:53:00,71.2,30.5,29.50,WSW,256,6.3,7.6,22,0.00,,---,0.00,VWS V14.00,2013-05-05 20:53:00,
2013-05-05 13:59:00,71.6,30.8,29.50,WSW,247,2.7,3.1,22,0.00,,---,0.00,VWS V14.00,2013-05-05 20:59:00,
2013-05-05 14:04:00,72.0,31.1,29.50,West,276,3.6,3.6,22,0.00,,---,0.00,VWS V14.00,2013-05-05 21:04:00,
2013-05-05 14:09:00,72.3,31.4,29.50,WSW,250,3.6,3.6,22,0.00,,---,0.00,VWS V14.00,2013-05-05 21:09:00,
2013-05-05 14:14:00,72.5,31.5,29.50,North,4,2.7,3.1,22,0.00,,---,0.00,VWS V14.00,2013-05-05 21:14:00,
2013-05-05 14:19:00,72.1,31.2,29.50,WNW,297,3.1,4.0,22,0.00,,---,0.00,VWS V14.00,2013-05-05 21:19:00,
2013-05-05 14:25:00,72.3,31.4,29.50,NW,305,3.1,5.4,22,0.00,,---,0.00,VWS V14.00,2013-05-05 21:25:00,
2013-05-05 14:31:00,73.0,32.0,29.50,WNW,283,0.0,0.0,22,0.00,,---,0.00,VWS V14.00,2013-05-05 21:31:00,
2013-05-05 14:36:00,73.8,31.4,29.50,West,280,6.7,6.7,21,0.00,,---,0.00,VWS V14.00,2013-05-05 21:36:00,
2013-05-05 14:41:00,73.6,31.3,29.50,WSW,257,3.6,3.6,21,0.00,,---,0.00,VWS V14.00,2013-05-05 21:41:00,
2013-05-05 14:47:00,73.6,31.3,29.50,NW,321,3.1,3.1,21,0.00,,---,0.00,VWS V14.00,2013-05-05 21:47:00,
2013-05-05 14:53:00,73.8,31.4,29.50,North,2,7.6,7.6,21,0.00,,---,0.00,VWS V14.00,2013-05-05 21:53:00,
2013-05-05 14:59:00,73.8,31.4,29.50,West,267,0.0,0.0,21,0.00,,---,0.00,VWS V14.00,2013-05-05 21:59:00,
2013-05-05 15:04:00,74.3,31.9,29.50,South,185,3.1,3.1,21,0.00,,---,0.00,VWS V14.00,2013-05-05 22:04:00,
2013-05-05 15:09:00,74.5,32.0,29.50,North,350,8.7,8.7,21,0.00,,---,0.00,VWS V14.00,2013-05-05 22:09:00,
2013-05-05 15:14:00,73.9,31.6,29.50,NNW,339,4.5,5.4,21,0.00,,---,0.00,VWS V14.00,2013-05-05 22:14:00,
2013-05-05 15:20:00,73.9,31.6,29.50,WNW,301,2.7,5.4,21,0.00,,---,0.00,VWS V14.00,2013-05-05 22:20:00,
2013-05-05 15:25:00,74.7,32.2,29.50,WSW,243,3.6,4.0,21,0.00,,---,0.00,VWS V14.00,2013-05-05 22:25:00,
2013-05-05 15:31:00,75.2,31.4,29.50,West,273,6.3,6.3,20,0.00,,---,0.00,VWS V14.00,2013-05-05 22:31:00,
2013-05-05 15:36:00,74.8,28.5,29.50,WSW,258,4.0,5.4,18,0.00,,---,0.00,VWS V14.00,2013-05-05 22:36:00,
2013-05-05 15:41:00,74.7,32.2,29.50,WSW,250,5.8,5.8,21,0.00,,---,0.00,VWS V14.00,2013-05-05 22:41:00,
2013-05-05 15:47:00,74.8,32.3,29.50,WSW,247,3.1,5.4,21,0.00,,---,0.00,VWS V14.00,2013-05-05 22:47:00,
2013-05-05 15:52:00,74.8,32.3,29.50,WSW,256,3.1,4.0,21,0.00,,---,0.00,VWS V14.00,2013-05-05 22:52:00,
2013-05-05 15:58:00,75.2,31.4,29.50,NW,315,4.0,4.0,20,0.00,,---,0.00,VWS V14.00,2013-05-05 22:58:00,
2013-05-05 16:03:00,75.7,31.9,29.50,South,176,3.6,3.6,20,0.00,,---,0.00,VWS V14.00,2013-05-05 23:03:00,
2013-05-05 16:08:00,75.7,29.3,29.47,WSW,256,4.0,5.4,18,0.00,,---,0.00,VWS V14.00,2013-05-05 23:08:00,
2013-05-05 16:14:00,74.8,28.5,29.47,ENE,76,2.7,2.7,18,0.00,,---,0.00,VWS V14.00,2013-05-05 23:14:00,
2013-05-05 16:20:00,73.9,27.8,29.47,SSW,210,2.7,2.7,18,0.00,,---,0.00,VWS V14.00,2013-05-05 23:20:00,
2013-05-05 16:25:00,73.6,27.5,29.47,SW,221,4.9,6.3,18,0.00,,---,0.00,VWS V14.00,2013-05-05 23:25:00,
2013-05-05 16:31:00,73.6,27.5,29.47,SSE,147,0.0,3.1,18,0.00,,---,0.00,VWS V14.00,2013-05-05 23:31:00,
2013-05-05 16:36:00,73.8,31.4,29.47,West,260,3.6,4.0,21,0.00,,---,0.00,VWS V14.00,2013-05-05 23:36:00,
2013-05-05 16:41:00,74.1,31.7,29.47,North,353,3.1,3.6,21,0.00,,---,0.00,VWS V14.00,2013-05-05 23:41:00,
2013-05-05 16:46:00,74.1,31.7,29.47,SW,228,0.0,0.0,21,0.00,,---,0.00,VWS V14.00,2013-05-05 23:46:00,
2013-05-05 16:52:00,74.7,32.2,29.47,SSE,153,0.0,0.0,21,0.00,,---,0.00,VWS V14.00,2013-05-05 23:52:00,
2013-05-05 16:58:00,74.5,32.0,29.47,North,349,0.0,0.0,21,0.00,,---,0.00,VWS V14.00,2013-05-05 23:58:00,
2013-05-05 17:03:00,74.7,32.2,29.47,NNW,329,2.7,2.7,21,0.00,,---,0.00,VWS V14.00,2013-05-06 00:03:00,
2013-05-05 17:08:00,74.5,32.0,29.50,WSW,246,4.0,4.0,21,0.00,,---,0.00,VWS V14.00,2013-05-06 00:08:00,
2013-05-05 17:13:00,74.7,32.2,29.50,ESE,122,2.2,2.2,21,0.00,,---,0.00,VWS V14.00,2013-05-06 00:13:00,
2013-05-05 17:19:00,75.0,28.7,29.50,SE,134,8.1,8.1,18,0.00,,---,0.00,VWS V14.00,2013-05-06 00:19:00,
2013-05-05 17:24:00,75.0,28.7,29.50,SE,129,9.2,9.2,18,0.00,,---,0.00,VWS V14.00,2013-05-06 00:24:00,
2013-05-05 17:29:00,74.8,25.7,29.50,SE,144,5.8,5.8,16,0.00,,---,0.00,VWS V14.00,2013-05-06 00:29:00,
2013-05-05 17:34:00,74.7,25.5,29.50,SSE,168,3.6,3.6,16,0.00,,---,0.00,VWS V14.00,2013-05-06 00:34:00,
2013-05-05 17:40:00,74.7,25.5,29.50,ESE,108,5.4,5.4,16,0.00,,---,0.00,VWS V14.00,2013-05-06 00:40:00,
2013-05-05 17:45:00,74.7,25.5,29.50,South,186,5.4,5.4,16,0.00,,---,0.00,VWS V14.00,2013-05-06 00:45:00,
2013-05-05 17:50:00,74.8,28.5,29.50,SSE,156,10.5,10.5,18,0.00,,---,0.00,VWS V14.00,2013-05-06 00:50:00,
2013-05-05 17:55:00,74.7,25.5,29.50,SSW,213,5.8,7.6,16,0.00,,---,0.00,VWS V14.00,2013-05-06 00:55:00,
2013-05-05 18:01:00,74.5,25.4,29.50,SSW,200,4.9,4.9,16,0.00,,---,0.00,VWS V14.00,2013-05-06 01:01:00,
2013-05-05 18:06:00,74.5,28.2,29.50,South,188,3.6,3.6,18,0.00,,---,0.00,VWS V14.00,2013-05-06 01:06:00,
2013-05-05 18:11:00,74.7,28.4,29.50,SSW,192,2.7,5.8,18,0.00,,---,0.00,VWS V14.00,2013-05-06 01:11:00,
2013-05-05 18:17:00,74.5,28.2,29.50,SW,217,4.0,4.0,18,0.00,,---,0.00,VWS V14.00,2013-05-06 01:17:00,
2013-05-05 18:22:00,74.1,25.1,29.50,SSW,192,4.0,5.4,16,0.00,,---,0.00,VWS V14.00,2013-05-06 01:22:00,
2013-05-05 18:27:00,73.9,27.8,29.50,SW,235,4.0,4.0,18,0.00,,---,0.00,VWS V14.00,2013-05-06 01:27:00,